METAR Data
IDs: Format: Raw Decoded Include TAF

Data at: 2350 UTC 29 May 2020

PGSN 292254Z 06016KT 10SM FEW028 SCT036 30/24 A2999 RMK AO2 SLP177 T03000244